Time;durP1;ratioP1;P1;durP2;ratioP2;P2;SDS_P1;SDS_P2;PMS_P1;PMS_P2;Temp;Humidity;BMP_temperature;BMP_pressure;BME280_temperature;BME280_humidity;BME280_pressure;Samples;Min_cycle;Max_cycle;Signal;HPM_P1;HPM_P2
2023/05/24 00:00:10;;;;;;;8.10;7.00;;;;;;;15.89;58.95;100140.95;216087;1253;73284;-73
2023/05/24 00:05:01;;;;;;;11.20;7.30;;;;;;;15.83;58.77;100145.76;216126;1253;61187;-73
2023/05/24 00:09:53;;;;;;;15.60;7.80;;;;;;;15.78;59.00;100144.25;216050;1253;59656;-73
2023/05/24 00:14:46;;;;;;;9.10;8.00;;;;;;;15.76;59.27;100143.39;216053;1253;59728;-72
2023/05/24 00:19:38;;;;;;;11.20;7.40;;;;;;;15.73;59.14;100137.13;216092;1253;59720;-72
2023/05/24 00:24:32;;;;;;;7.20;6.50;;;;;;;15.71;59.03;100132.79;216159;1253;59604;-73
2023/05/24 00:29:24;;;;;;;7.30;6.60;;;;;;;15.70;59.25;100126.33;216120;1253;59646;-72
2023/05/24 00:34:17;;;;;;;8.90;6.40;;;;;;;15.68;59.41;100127.23;216177;1252;59789;-73
2023/05/24 00:39:11;;;;;;;7.60;6.70;;;;;;;15.66;59.57;100123.94;216103;1253;73428;-73
2023/05/24 00:44:03;;;;;;;8.90;7.20;;;;;;;15.65;59.93;100122.20;216143;1252;71811;-72
2023/05/24 00:48:55;;;;;;;7.10;6.30;;;;;;;15.62;59.73;100122.42;216177;1253;59831;-72
2023/05/24 00:53:48;;;;;;;8.10;6.60;;;;;;;15.61;59.59;100116.84;216103;1253;59661;-72
2023/05/24 00:58:43;;;;;;;9.20;7.30;;;;;;;15.58;59.53;100114.25;216249;1251;59756;-73
2023/05/24 01:03:34;;;;;;;15.20;7.20;;;;;;;15.56;59.30;100113.08;216017;1253;74076;-72
2023/05/24 01:08:53;;;;;;;7.80;6.70;;;;;;;15.54;59.67;100109.42;216009;1256;72360;-72
2023/05/24 01:14:06;;;;;;;6.50;5.90;;;;;;;15.53;59.15;100104.71;216111;1252;59565;-72
2023/05/24 01:19:05;;;;;;;6.50;5.80;;;;;;;15.51;59.39;100104.03;216283;1251;67143;-72
2023/05/24 01:24:09;;;;;;;7.60;6.80;;;;;;;15.50;59.16;100105.45;216097;1253;59680;-73
2023/05/24 01:29:02;;;;;;;7.30;6.60;;;;;;;15.51;58.92;100107.35;216110;1257;73184;-72
2023/05/24 01:33:54;;;;;;;6.30;5.70;;;;;;;15.52;59.10;100113.47;216167;1253;73613;-72
2023/05/24 01:38:46;;;;;;;7.50;6.10;;;;;;;15.50;58.80;100117.34;216112;1253;59721;-73
2023/05/24 01:43:42;;;;;;;8.30;6.40;;;;;;;15.48;58.85;100117.89;216302;1253;59731;-72
2023/05/24 01:48:59;;;;;;;10.50;6.70;;;;;;;15.48;58.66;100117.19;216251;1253;59891;-72
2023/05/24 01:53:52;;;;;;;6.30;5.40;;;;;;;15.44;58.64;100120.90;216265;1253;66782;-72
2023/05/24 01:58:46;;;;;;;6.70;5.60;;;;;;;15.40;58.36;100122.69;216136;1252;60022;-72
2023/05/24 02:03:39;;;;;;;7.90;5.80;;;;;;;15.39;59.10;100128.13;216155;1253;74023;-73
2023/05/24 02:08:30;;;;;;;7.80;6.10;;;;;;;15.36;59.42;100129.73;216108;1253;59792;-72
2023/05/24 02:13:22;;;;;;;9.10;5.70;;;;;;;15.29;59.14;100129.47;216128;1253;59616;-73
2023/05/24 02:18:14;;;;;;;6.20;5.60;;;;;;;15.23;59.74;100133.36;216156;1253;59773;-73
2023/05/24 02:23:06;;;;;;;6.40;5.80;;;;;;;15.18;59.77;100130.29;216085;1255;59669;-73
2023/05/24 02:28:00;;;;;;;6.60;6.00;;;;;;;15.14;59.85;100136.45;216123;1253;59615;-72
2023/05/24 02:32:52;;;;;;;8.30;5.90;;;;;;;15.09;60.14;100139.64;216169;1257;60479;-72
2023/05/24 02:37:44;;;;;;;7.60;6.20;;;;;;;15.05;60.06;100138.30;216179;1253;59764;-72
2023/05/24 02:42:36;;;;;;;7.70;6.10;;;;;;;15.01;60.48;100137.45;216102;1253;59750;-72
2023/05/24 02:47:27;;;;;;;6.60;5.70;;;;;;;14.97;60.61;100138.19;216062;1257;72926;-72
2023/05/24 02:52:21;;;;;;;7.20;6.50;;;;;;;14.93;60.47;100134.92;216071;1253;60969;-72
2023/05/24 02:57:31;;;;;;;7.10;6.00;;;;;;;14.88;60.68;100137.77;216169;1253;59729;-73
2023/05/24 03:02:23;;;;;;;8.60;6.50;;;;;;;14.86;60.42;100138.48;216041;1255;67000;-73
2023/05/24 03:07:14;;;;;;;6.90;6.30;;;;;;;14.86;60.43;100137.79;216120;1253;59822;-73
2023/05/24 03:12:06;;;;;;;7.20;5.70;;;;;;;14.85;60.56;100141.98;216172;1252;60080;-72
2023/05/24 03:16:58;;;;;;;6.80;5.90;;;;;;;14.83;60.13;100139.55;216110;1253;60544;-73
2023/05/24 03:21:50;;;;;;;7.40;6.30;;;;;;;14.87;60.59;100146.84;216064;1253;60329;-73
2023/05/24 03:26:41;;;;;;;8.20;5.50;;;;;;;14.92;60.73;100149.08;216124;1252;61016;-73
2023/05/24 03:31:33;;;;;;;7.20;6.50;;;;;;;14.94;60.34;100153.59;216237;1254;73911;-73
2023/05/24 03:36:26;;;;;;;6.80;6.10;;;;;;;14.98;60.30;100156.32;216173;1256;60619;-73
2023/05/24 03:41:19;;;;;;;6.30;5.40;;;;;;;15.05;60.77;100152.42;216188;1253;60872;-73
2023/05/24 03:46:10;;;;;;;10.50;6.20;;;;;;;15.13;61.15;100157.91;216093;1254;60525;-73
2023/05/24 03:51:03;;;;;;;7.90;6.90;;;;;;;15.21;61.17;100156.27;216035;1253;60489;-73
2023/05/24 03:55:54;;;;;;;9.00;5.10;;;;;;;15.29;60.90;100161.41;216245;1255;67037;-73
2023/05/24 04:00:46;;;;;;;6.60;5.80;;;;;;;15.35;60.96;100163.10;216108;1253;60447;-73
2023/05/24 04:05:38;;;;;;;5.60;5.10;;;;;;;15.41;60.77;100162.52;216156;1256;60626;-74
2023/05/24 04:10:29;;;;;;;8.20;5.20;;;;;;;15.49;60.73;100164.33;216002;1255;60455;-73
2023/05/24 04:15:21;;;;;;;6.80;5.20;;;;;;;15.59;60.82;100167.17;216083;1257;60534;-73
2023/05/24 04:20:14;;;;;;;7.00;5.80;;;;;;;15.69;60.82;100167.23;216152;1256;60440;-73
2023/05/24 04:25:08;;;;;;;7.20;6.60;;;;;;;15.77;60.39;100169.95;216173;1255;60551;-73
2023/05/24 04:30:00;;;;;;;8.00;5.90;;;;;;;15.87;60.64;100174.72;216100;1255;72830;-73
2023/05/24 04:34:51;;;;;;;7.30;5.60;;;;;;;15.98;60.62;100177.72;216146;1257;60504;-73
2023/05/24 04:39:44;;;;;;;8.40;5.90;;;;;;;16.07;59.95;100184.06;215951;1256;60459;-72
2023/05/24 04:44:35;;;;;;;6.00;5.30;;;;;;;16.16;59.42;100192.13;215902;1255;60725;-73
2023/05/24 04:49:27;;;;;;;5.90;5.30;;;;;;;16.28;59.42;100197.23;216067;1254;60560;-73
2023/05/24 04:54:28;;;;;;;7.80;5.60;;;;;;;16.37;59.36;100200.23;216030;1254;60448;-72
2023/05/24 04:59:24;;;;;;;6.60;5.50;;;;;;;16.50;59.22;100199.52;216261;1255;72891;-73
2023/05/24 05:04:21;;;;;;;6.90;5.30;;;;;;;16.64;58.61;100203.13;216104;1257;71379;-73
2023/05/24 05:09:20;;;;;;;8.20;5.20;;;;;;;16.81;58.29;100202.52;215916;1256;61594;-73
2023/05/24 05:14:13;;;;;;;9.80;5.10;;;;;;;17.03;57.09;100204.79;216775;1254;65555;-74
2023/05/24 05:19:04;;;;;;;11.80;6.00;;;;;;;17.26;56.63;100207.34;215826;1256;60571;-73
2023/05/24 05:23:57;;;;;;;5.70;5.10;;;;;;;17.49;56.22;100215.14;216611;1256;60447;-73
2023/05/24 05:28:51;;;;;;;8.50;5.60;;;;;;;17.71;55.62;100218.38;215897;1254;60443;-73
2023/05/24 05:33:43;;;;;;;7.80;5.40;;;;;;;17.87;55.35;100212.29;216129;1254;60446;-74
2023/05/24 05:38:34;;;;;;;7.80;4.80;;;;;;;17.96;54.90;100219.30;216221;1256;60510;-73
2023/05/24 05:43:27;;;;;;;7.50;5.40;;;;;;;17.94;55.14;100218.82;216278;1255;60536;-73
2023/05/24 05:48:19;;;;;;;5.70;5.10;;;;;;;17.85;54.91;100224.08;216001;1254;71483;-72
2023/05/24 05:53:12;;;;;;;7.20;5.00;;;;;;;17.88;55.18;100228.05;216140;1257;61190;-73
2023/05/24 05:58:04;;;;;;;8.90;5.20;;;;;;;18.10;54.56;100235.13;216088;1254;60464;-74
2023/05/24 06:02:55;;;;;;;12.20;5.10;;;;;;;18.29;53.58;100237.52;216008;1254;60524;-75
2023/05/24 06:07:47;;;;;;;9.50;6.10;;;;;;;18.57;52.99;100237.06;216032;1254;65611;-74
2023/05/24 06:12:42;;;;;;;12.30;5.30;;;;;;;18.85;52.56;100247.63;216058;1254;60556;-74
2023/05/24 06:17:34;;;;;;;6.60;5.50;;;;;;;19.19;52.16;100251.18;216005;1255;74628;-73
2023/05/24 06:22:26;;;;;;;6.20;4.70;;;;;;;19.38;51.86;100257.17;216120;1257;60437;-73
2023/05/24 06:27:20;;;;;;;5.50;4.80;;;;;;;19.57;50.57;100264.23;216084;1254;60457;-73
2023/05/24 06:32:11;;;;;;;5.80;4.90;;;;;;;19.89;49.94;100265.64;216105;1256;60419;-73
2023/05/24 06:37:03;;;;;;;6.10;5.50;;;;;;;20.21;49.49;100265.95;215843;1256;60448;-74
2023/05/24 06:41:56;;;;;;;5.70;4.90;;;;;;;20.60;49.17;100271.80;215951;1254;67356;-73
2023/05/24 06:46:48;;;;;;;6.70;4.90;;;;;;;21.18;48.11;100275.04;217443;1251;60549;-73
2023/05/24 06:51:40;;;;;;;4.80;4.40;;;;;;;21.33;47.54;100277.37;217307;1251;60476;-72
2023/05/24 06:56:32;;;;;;;7.80;5.30;;;;;;;21.72;46.56;100278.31;216223;1254;60460;-72
2023/05/24 07:01:23;;;;;;;7.10;5.80;;;;;;;21.91;45.62;100282.73;216087;1256;143051;-73
2023/05/24 07:06:16;;;;;;;6.10;4.90;;;;;;;21.91;45.74;100285.20;216301;1255;60522;-73
2023/05/24 07:11:08;;;;;;;6.30;4.50;;;;;;;22.44;44.96;100287.28;216281;1254;73803;-72
2023/05/24 07:16:04;;;;;;;7.70;5.10;;;;;;;22.61;44.79;100292.64;216127;1255;60492;-72
2023/05/24 07:20:57;;;;;;;9.40;4.80;;;;;;;23.44;43.72;100301.08;216260;1251;60982;-73
2023/05/24 07:25:48;;;;;;;5.90;5.20;;;;;;;24.31;42.83;100302.50;217847;1254;62015;-73
2023/05/24 07:30:43;;;;;;;6.10;4.80;;;;;;;24.55;42.07;100309.73;217604;1254;60480;-72
2023/05/24 07:35:44;;;;;;;6.10;5.00;;;;;;;24.44;41.69;100318.18;215814;1254;67565;-73
2023/05/24 07:40:38;;;;;;;7.40;5.00;;;;;;;26.59;39.75;100312.96;215991;1253;60439;-73
2023/05/24 07:45:34;;;;;;;6.80;4.30;;;;;;;26.69;39.30;100315.25;216266;1254;73608;-74
2023/05/24 07:50:28;;;;;;;5.00;4.50;;;;;;;26.27;39.38;100325.91;215932;1254;73592;-73
2023/05/24 07:55:26;;;;;;;4.60;4.20;;;;;;;26.38;38.52;100326.52;216382;1253;60594;-73
2023/05/24 08:00:23;;;;;;;5.00;4.30;;;;;;;25.55;38.90;100333.57;216229;1253;65742;-73
2023/05/24 08:05:20;;;;;;;4.80;4.30;;;;;;;25.24;39.07;100339.77;216180;1251;60415;-74
2023/05/24 08:10:12;;;;;;;10.90;5.10;;;;;;;25.19;38.62;100339.63;216103;1256;74618;-73
2023/05/24 08:15:06;;;;;;;4.90;3.50;;;;;;;25.08;38.80;100344.08;216078;1254;60456;-74
2023/05/24 08:20:02;;;;;;;6.00;4.60;;;;;;;25.48;38.68;100342.27;216091;1254;60474;-73
2023/05/24 08:25:15;;;;;;;5.10;4.60;;;;;;;26.33;37.98;100345.45;216006;1254;67293;-73
2023/05/24 08:30:07;;;;;;;5.50;5.00;;;;;;;26.86;37.60;100338.80;216038;1256;60447;-73
2023/05/24 08:34:59;;;;;;;6.60;5.20;;;;;;;27.65;37.09;100347.95;215975;1254;60553;-72
2023/05/24 08:40:10;;;;;;;4.60;4.20;;;;;;;27.60;36.75;100347.70;215887;1256;72545;-72
2023/05/24 08:45:11;;;;;;;4.60;4.30;;;;;;;27.04;37.08;100341.55;215957;1253;60546;-72
2023/05/24 08:50:13;;;;;;;5.90;4.40;;;;;;;26.63;37.17;100344.77;216028;1253;67014;-73
2023/05/24 08:55:10;;;;;;;4.30;3.90;;;;;;;26.41;36.88;100349.34;215938;1254;60463;-73
2023/05/24 09:00:01;;;;;;;5.20;4.70;;;;;;;26.34;37.03;100350.59;215958;1252;74972;-73
2023/05/24 09:04:54;;;;;;;11.20;5.10;;;;;;;26.39;37.25;100352.08;216086;1253;60560;-74
2023/05/24 09:10:21;;;;;;;8.50;4.60;;;;;;;26.43;37.22;100358.80;216062;1253;60437;-73
2023/05/24 09:22:22;;;;;;;12.60;5.10;;;;;;;28.68;34.48;100353.90;215003;1260;60502;-77
2023/05/24 09:33:47;;;;;;;4.30;3.90;;;;;;;29.93;32.44;100355.34;215180;1257;72408;-73
2023/05/24 09:38:42;;;;;;;10.20;4.30;;;;;;;31.41;30.76;100363.65;215289;1260;60467;-74
2023/05/24 09:43:50;;;;;;;4.90;3.90;;;;;;;33.03;29.03;100362.11;215226;1257;65664;-74
2023/05/24 09:54:51;;;;;;;5.80;3.80;;;;;;;34.69;26.88;100371.67;215989;1254;73044;-74
2023/05/24 10:05:53;;;;;;;4.80;3.40;;;;;;;32.41;28.14;100379.59;216161;1255;60430;-74
2023/05/24 10:10:45;;;;;;;4.20;3.70;;;;;;;31.64;28.21;100386.84;216076;1251;66938;-73
2023/05/24 10:15:37;;;;;;;5.50;4.40;;;;;;;31.43;28.37;100385.38;216156;1252;61395;-74
2023/05/24 10:20:29;;;;;;;5.10;4.50;;;;;;;32.85;27.91;100379.83;216195;1251;60438;-76
2023/05/24 10:25:27;;;;;;;4.70;4.10;;;;;;;35.64;25.90;100379.17;216228;1253;73084;-75
2023/05/24 10:30:50;;;;;;;9.50;4.00;;;;;;;36.84;24.39;100384.13;216158;1253;60444;-75
2023/05/24 10:36:20;;;;;;;9.10;4.50;;;;;;;37.02;24.26;100390.59;216060;1253;67077;-73
2023/05/24 10:42:20;;;;;;;9.70;4.80;;;;;;;37.18;23.41;100384.36;216207;1253;60335;-75
2023/05/24 10:54:14;;;;;;;6.80;4.30;;;;;;;36.58;23.10;100387.77;216299;1252;72728;-75
2023/05/24 10:59:49;;;;;;;4.80;4.20;;;;;;;36.23;23.56;100394.20;214634;1259;60603;-75
2023/05/24 11:05:57;;;;;;;10.60;4.30;;;;;;;35.07;24.24;100401.17;214392;1265;67839;-75
2023/05/24 11:12:06;;;;;;;11.00;4.30;;;;;;;33.62;25.51;100400.17;213282;1271;60985;-75
2023/05/24 12:03:55;;;;;;;7.90;4.00;;;;;;;27.20;34.05;100410.73;214320;1265;60967;-74
2023/05/24 12:35:59;;;;;;;7.60;5.80;;;;;;;25.20;39.99;100413.89;213118;1270;60632;-74
2023/05/24 12:48:03;;;;;;;7.50;5.40;;;;;;;24.30;42.40;100431.50;214298;1265;60477;-74
2023/05/24 13:00:53;;;;;;;6.50;5.50;;;;;;;23.13;47.45;100437.64;214628;1260;71424;-74
2023/05/24 13:12:30;;;;;;;11.90;6.80;;;;;;;21.93;52.26;100450.09;214113;1265;65834;-74
2023/05/24 13:17:24;;;;;;;8.20;5.90;;;;;;;21.57;53.18;100452.35;214702;1260;60608;-74
2023/05/24 13:22:20;;;;;;;7.30;6.30;;;;;;;21.32;54.03;100451.70;214805;1263;72574;-73
2023/05/24 13:27:12;;;;;;;9.00;6.90;;;;;;;21.13;55.27;100450.54;214687;1260;60646;-73
2023/05/24 13:32:04;;;;;;;7.60;6.60;;;;;;;21.02;56.00;100445.27;214621;1261;60476;-74
2023/05/24 13:36:56;;;;;;;8.40;7.20;;;;;;;21.00;56.79;100444.64;214797;1259;60460;-73
2023/05/24 13:41:49;;;;;;;7.80;6.10;;;;;;;21.11;58.12;100439.70;214804;1260;60560;-73
2023/05/24 13:46:42;;;;;;;9.00;7.40;;;;;;;21.37;58.38;100441.89;215453;1252;68024;-74
2023/05/24 13:51:35;;;;;;;11.30;7.10;;;;;;;21.59;58.61;100451.42;216186;1254;60458;-74
2023/05/24 13:56:32;;;;;;;;;;;;;;;21.74;58.59;100453.39;216096;1252;74616;-74
2023/05/24 14:01:27;;;;;;;6.80;6.20;;;;;;;21.75;58.60;100462.71;216125;1252;71362;-74
2023/05/24 14:06:24;;;;;;;6.40;5.80;;;;;;;21.66;58.75;100479.58;216097;1253;60425;-75
2023/05/24 14:11:16;;;;;;;8.10;6.10;;;;;;;21.55;58.56;100474.30;216023;1253;67666;-75
2023/05/24 14:16:11;;;;;;;6.80;5.90;;;;;;;21.34;58.90;100478.11;216102;1254;60480;-74
2023/05/24 14:21:07;;;;;;;8.00;5.50;;;;;;;21.05;59.03;100484.09;216093;1253;73870;-74
2023/05/24 14:26:04;;;;;;;5.50;5.00;;;;;;;20.80;56.06;100466.34;216156;1252;73735;-73
2023/05/24 14:30:58;;;;;;;6.20;5.40;;;;;;;20.65;57.34;100451.98;216069;1252;60479;-74
2023/05/24 14:35:50;;;;;;;6.80;6.10;;;;;;;20.49;57.79;100441.67;216111;1252;61128;-73
2023/05/24 14:40:45;;;;;;;7.50;5.10;;;;;;;20.43;58.83;100444.83;216178;1253;60421;-73
2023/05/24 14:45:41;;;;;;;6.40;5.70;;;;;;;20.23;59.27;100451.35;216118;1251;73780;-73
2023/05/24 14:50:46;;;;;;;10.10;6.70;;;;;;;20.07;60.25;100454.63;216041;1252;73402;-73
2023/05/24 14:55:42;;;;;;;6.60;5.90;;;;;;;19.95;60.71;100457.92;216204;1252;61159;-73
2023/05/24 15:00:40;;;;;;;6.30;5.70;;;;;;;19.82;61.04;100460.02;216342;1253;66437;-73
2023/05/24 15:05:32;;;;;;;6.50;6.00;;;;;;;19.71;61.62;100459.89;216186;1252;60883;-73
2023/05/24 15:10:26;;;;;;;7.80;7.10;;;;;;;19.73;62.22;100460.92;216059;1252;60460;-73
2023/05/24 15:15:21;;;;;;;7.90;6.90;;;;;;;19.81;62.92;100460.91;216140;1253;71698;-74
2023/05/24 15:20:18;;;;;;;6.80;6.20;;;;;;;19.94;63.33;100474.64;215937;1257;60510;-73
2023/05/24 15:25:15;;;;;;;8.40;6.60;;;;;;;20.18;63.76;100479.32;215876;1252;68101;-73
2023/05/24 15:30:10;;;;;;;8.10;7.20;;;;;;;20.36;64.05;100478.83;217087;1252;59644;-73
2023/05/24 15:35:05;;;;;;;8.60;7.80;;;;;;;20.48;64.93;100484.30;215948;1252;73772;-73
2023/05/24 15:40:04;;;;;;;9.50;8.70;;;;;;;20.62;65.28;100486.05;215844;1253;72663;-73
2023/05/24 15:44:58;;;;;;;;;;;;;;;20.68;65.26;100491.18;216207;1252;60655;-73
2023/05/24 15:49:52;;;;;;;8.90;8.10;;;;;;;20.67;65.90;100502.30;216018;1253;66789;-73
2023/05/24 15:54:55;;;;;;;9.80;8.90;;;;;;;20.66;66.30;100508.14;216002;1253;60548;-73
2023/05/24 15:59:50;;;;;;;9.80;8.80;;;;;;;20.68;66.08;100516.18;216050;1253;74746;-73
2023/05/24 16:04:42;;;;;;;9.40;8.50;;;;;;;20.70;66.67;100526.70;216041;1252;60450;-73
2023/05/24 16:09:34;;;;;;;10.00;9.10;;;;;;;20.70;66.92;100538.51;215961;1256;60467;-73
2023/05/24 16:14:35;;;;;;;11.10;8.90;;;;;;;20.70;66.63;100539.19;216078;1252;60527;-74
2023/05/24 16:19:50;;;;;;;;;;;;;;;;;;;;;
2023/05/24 16:24:50;;;;;;;10.80;9.80;;;;;;;21.20;65.48;100543.92;216120;1253;73203;-73
2023/05/24 16:29:48;;;;;;;15.80;13.10;;;;;;;21.31;64.69;100553.82;215948;1257;70468;-73
2023/05/24 16:35:00;;;;;;;11.80;10.60;;;;;;;21.38;63.58;100551.68;216182;1253;60546;-73
2023/05/24 16:39:52;;;;;;;13.90;10.60;;;;;;;21.39;63.15;100554.81;215985;1252;66994;-73
2023/05/24 16:44:46;;;;;;;11.20;10.00;;;;;;;21.33;62.89;100555.69;216032;1253;60785;-74
2023/05/24 16:49:38;;;;;;;11.70;10.60;;;;;;;21.25;62.48;100560.71;215994;1252;60459;-73
2023/05/24 16:54:32;;;;;;;12.50;11.40;;;;;;;21.12;62.30;100566.73;216165;1252;60535;-73
2023/05/24 16:59:30;;;;;;;13.20;11.90;;;;;;;20.98;62.30;100573.13;216076;1253;60522;-73
2023/05/24 17:04:23;;;;;;;12.30;11.00;;;;;;;20.83;62.48;100574.95;215955;1253;60435;-73
2023/05/24 17:09:19;;;;;;;12.50;11.40;;;;;;;20.71;62.62;100577.38;216111;1253;60469;-73
2023/05/24 17:14:10;;;;;;;12.30;11.20;;;;;;;20.60;62.56;100579.95;216033;1253;60470;-73
2023/05/24 17:19:02;;;;;;;15.30;12.50;;;;;;;20.53;62.48;100574.84;216067;1253;60477;-73
2023/05/24 17:23:54;;;;;;;13.10;11.90;;;;;;;20.44;62.19;100576.48;216136;1253;60534;-73
2023/05/24 17:28:58;;;;;;;12.90;11.70;;;;;;;20.41;62.03;100581.84;216012;1253;73748;-73
2023/05/24 17:33:50;;;;;;;12.70;11.30;;;;;;;20.36;62.21;100583.02;216088;1252;60426;-73
2023/05/24 17:38:44;;;;;;;15.30;12.10;;;;;;;20.32;62.16;100585.07;216003;1251;68207;-73
2023/05/24 17:43:40;;;;;;;13.90;12.50;;;;;;;20.31;62.47;100591.95;215885;1253;60503;-73
2023/05/24 17:48:33;;;;;;;13.50;12.20;;;;;;;20.26;62.57;100591.03;215889;1253;60471;-73
2023/05/24 17:53:25;;;;;;;14.30;11.80;;;;;;;20.13;62.77;100597.15;215744;1253;60470;-73
2023/05/24 17:58:23;;;;;;;12.80;10.80;;;;;;;19.99;62.62;100607.16;215894;1255;60496;-73
2023/05/24 18:03:18;;;;;;;12.50;11.10;;;;;;;19.88;62.40;100609.18;215790;1256;66070;-73
2023/05/24 18:08:10;;;;;;;14.20;12.80;;;;;;;19.74;62.52;100613.00;215733;1253;60612;-73
2023/05/24 18:13:07;;;;;;;13.80;12.00;;;;;;;19.58;62.58;100619.66;215879;1252;60451;-73
2023/05/24 18:18:12;;;;;;;13.50;12.20;;;;;;;19.43;62.67;100625.27;215802;1252;73324;-73
2023/05/24 18:23:23;;;;;;;12.90;11.60;;;;;;;19.31;62.94;100642.73;215759;1253;60526;-74
2023/05/24 18:28:20;;;;;;;11.20;10.30;;;;;;;19.17;63.05;100649.52;215361;1253;64817;-73
2023/05/24 18:33:14;;;;;;;12.70;11.50;;;;;;;19.07;63.11;100654.27;215798;1257;60524;-73
2023/05/24 18:38:09;;;;;;;12.90;11.40;;;;;;;18.97;63.18;100665.02;215887;1253;60547;-73
2023/05/24 18:43:01;;;;;;;12.90;11.60;;;;;;;18.86;63.36;100674.16;216061;1252;73885;-73
2023/05/24 18:47:53;;;;;;;12.80;11.30;;;;;;;18.78;63.33;100683.05;216223;1251;60532;-73
2023/05/24 18:52:50;;;;;;;;;;;;;;;18.69;63.42;100691.98;215728;1252;67707;-72
2023/05/24 18:57:44;;;;;;;12.70;11.20;;;;;;;18.60;63.63;100704.59;215674;1253;60451;-72
2023/05/24 19:02:40;;;;;;;14.40;12.90;;;;;;;18.53;63.71;100706.80;215731;1253;133969;-73
2023/05/24 19:07:34;;;;;;;12.60;11.30;;;;;;;18.46;63.79;100705.67;215781;1253;73508;-73
2023/05/24 19:12:26;;;;;;;12.90;11.70;;;;;;;18.36;63.93;100708.48;215939;1253;60439;-73
2023/05/24 19:17:17;;;;;;;14.70;12.00;;;;;;;18.28;64.15;100713.67;215824;1252;60454;-73
2023/05/24 19:22:11;;;;;;;15.20;12.30;;;;;;;18.19;64.22;100717.31;215776;1253;60471;-73
2023/05/24 19:27:05;;;;;;;13.90;12.50;;;;;;;18.09;64.34;100716.59;215865;1253;65834;-73
2023/05/24 19:31:58;;;;;;;14.10;12.10;;;;;;;17.99;64.39;100720.23;215615;1251;60460;-74
2023/05/24 19:36:50;;;;;;;13.90;12.60;;;;;;;17.89;64.57;100724.91;215789;1252;60541;-73
2023/05/24 19:41:44;;;;;;;13.90;12.50;;;;;;;17.81;64.73;100728.33;216005;1251;60460;-73
2023/05/24 19:46:36;;;;;;;13.80;12.40;;;;;;;17.74;64.80;100735.77;215891;1253;59262;-72
2023/05/24 19:51:38;;;;;;;15.20;13.20;;;;;;;17.64;64.90;100744.48;215954;1253;60909;-73
2023/05/24 19:56:30;;;;;;;14.40;13.10;;;;;;;17.57;65.14;100749.13;215954;1255;60553;-73
2023/05/24 20:01:26;;;;;;;14.20;12.90;;;;;;;17.55;65.14;100745.11;216027;1255;60568;-73
2023/05/24 20:06:18;;;;;;;14.00;12.50;;;;;;;17.48;65.28;100748.36;215801;1253;60539;-73
2023/05/24 20:11:10;;;;;;;13.60;12.20;;;;;;;17.44;65.31;100747.86;215848;1256;60525;-74
2023/05/24 20:16:02;;;;;;;12.90;11.60;;;;;;;17.38;65.43;100747.05;215700;1253;60499;-74
2023/05/24 20:20:56;;;;;;;14.20;12.20;;;;;;;17.34;65.51;100751.13;215857;1253;60464;-73
2023/05/24 20:25:51;;;;;;;;;;;;;;;17.29;65.60;100749.60;215745;1256;71715;-73
2023/05/24 20:30:44;;;;;;;14.90;13.20;;;;;;;17.24;65.74;100755.61;216038;1253;60524;-73
2023/05/24 20:35:36;;;;;;;13.50;12.10;;;;;;;17.16;65.82;100760.59;215986;1252;60733;-74
2023/05/24 20:40:29;;;;;;;14.00;12.70;;;;;;;17.11;65.95;100764.31;216012;1253;60551;-74
2023/05/24 20:45:23;;;;;;;15.20;12.60;;;;;;;17.02;66.18;100762.11;216032;1253;60595;-73
2023/05/24 20:50:18;;;;;;;16.50;14.90;;;;;;;16.92;66.43;100765.02;215723;1253;72801;-73
2023/05/24 20:55:10;;;;;;;15.40;13.40;;;;;;;16.85;66.74;100769.08;215833;1252;60447;-73
2023/05/24 21:00:02;;;;;;;15.30;13.30;;;;;;;16.76;66.70;100775.42;215844;1253;60393;-74
2023/05/24 21:04:54;;;;;;;15.40;14.00;;;;;;;16.66;66.71;100777.23;215743;1253;60308;-73
2023/05/24 21:09:54;;;;;;;16.10;14.60;;;;;;;16.58;66.88;100777.64;216642;1253;60518;-73
2023/05/24 21:14:45;;;;;;;15.40;13.60;;;;;;;16.52;67.02;100782.95;216016;1256;60480;-73
2023/05/24 21:19:37;;;;;;;15.50;13.90;;;;;;;16.49;67.22;100782.44;215954;1253;60531;-73
2023/05/24 21:25:01;;;;;;;15.70;14.10;;;;;;;16.43;67.24;100785.98;216024;1253;60461;-74
2023/05/24 21:29:53;;;;;;;15.00;13.60;;;;;;;16.39;67.47;100787.58;215996;1253;74724;-73
2023/05/24 21:34:45;;;;;;;18.50;15.80;;;;;;;16.37;67.69;100797.20;216088;1253;60447;-72
2023/05/24 21:39:37;;;;;;;15.50;14.10;;;;;;;16.33;68.05;100793.54;216097;1253;60441;-73
2023/05/24 21:44:28;;;;;;;16.00;14.40;;;;;;;16.30;68.06;100793.22;216039;1255;60705;-73
2023/05/24 21:49:20;;;;;;;16.30;14.90;;;;;;;16.25;68.15;100794.11;216074;1255;60451;-73
2023/05/24 21:54:12;;;;;;;16.70;15.10;;;;;;;16.25;68.32;100792.55;216008;1255;60563;-73
2023/05/24 21:59:03;;;;;;;16.80;14.80;;;;;;;16.20;68.34;100790.82;216089;1253;60582;-73
2023/05/24 22:03:56;;;;;;;16.20;14.60;;;;;;;16.15;68.40;100792.95;216027;1255;65989;-73
2023/05/24 22:08:48;;;;;;;18.80;17.00;;;;;;;16.08;68.36;100799.27;216053;1252;60461;-72
2023/05/24 22:14:06;;;;;;;17.00;15.30;;;;;;;16.00;68.58;100805.95;215965;1251;60875;-73
2023/05/24 22:18:59;;;;;;;16.80;15.10;;;;;;;15.95;68.53;100811.56;216029;1253;60424;-73
2023/05/24 22:23:52;;;;;;;17.30;15.40;;;;;;;15.85;68.70;100815.97;215952;1256;72395;-73
2023/05/24 22:28:55;;;;;;;15.50;13.90;;;;;;;15.80;69.09;100813.71;215997;1256;60485;-73
2023/05/24 22:33:50;;;;;;;17.40;15.30;;;;;;;15.74;69.10;100814.05;216069;1253;60524;-75
2023/05/24 22:38:44;;;;;;;16.80;15.30;;;;;;;15.66;69.19;100816.17;215917;1253;66298;-73
2023/05/24 22:43:38;;;;;;;18.10;16.20;;;;;;;15.60;69.36;100815.64;215965;1251;60427;-73
2023/05/24 22:48:32;;;;;;;17.20;15.40;;;;;;;15.54;69.48;100817.23;215966;1253;73487;-73
2023/05/24 22:53:24;;;;;;;18.10;16.40;;;;;;;15.46;69.60;100819.34;216016;1256;72621;-73
2023/05/24 22:58:20;;;;;;;17.80;15.80;;;;;;;15.39;69.74;100822.85;216186;1253;60483;-73
2023/05/24 23:03:11;;;;;;;18.90;17.00;;;;;;;15.29;69.78;100820.77;216060;1251;67459;-73
2023/05/24 23:08:11;;;;;;;19.50;17.50;;;;;;;15.19;69.95;100825.99;216047;1253;60625;-73
2023/05/24 23:13:03;;;;;;;19.40;17.40;;;;;;;15.08;70.20;100827.75;216147;1253;72890;-73
2023/05/24 23:17:56;;;;;;;16.10;14.50;;;;;;;14.99;70.29;100821.12;215995;1254;60455;-73
2023/05/24 23:22:51;;;;;;;19.50;17.40;;;;;;;14.92;70.68;100825.99;215984;1255;60473;-74
2023/05/24 23:27:47;;;;;;;20.70;17.70;;;;;;;14.87;70.66;100826.70;215833;1257;60484;-74
2023/05/24 23:32:43;;;;;;;19.30;17.10;;;;;;;14.80;70.77;100825.30;215934;1253;60469;-73
2023/05/24 23:37:37;;;;;;;20.90;17.30;;;;;;;14.72;70.84;100831.20;216026;1251;72958;-73
2023/05/24 23:42:35;;;;;;;21.30;18.50;;;;;;;14.68;71.20;100833.46;216031;1254;72950;-73
2023/05/24 23:47:26;;;;;;;21.80;19.50;;;;;;;14.63;71.33;100838.69;215991;1255;60466;-73
2023/05/24 23:52:19;;;;;;;25.40;20.70;;;;;;;14.59;71.59;100840.60;216012;1253;60496;-73
2023/05/24 23:57:10;;;;;;;22.30;20.00;;;;;;;14.58;71.62;100841.10;215978;1255;60546;-73
